Aérodrome :
LOGIN :

S'inscrire | Disclaimer

   EN    FR    IT 

 










Légende :    VFR   VFR Marginal   IFR   IFR Intensif   IFR Très Intensif
Visi : 
Plafond : 
>= 8 km
>= 3000ft
5 à 8 km
1000 à 3000 ft
1500m à 5 km
500 à 1000 ft
800 à 1500m
200 à 500 ft
< 800m
< 200 ft
Symboles :   Orages  Brouillard  Fortes neiges  Fortes précipitations  Vent > 20 kt
SIGMETs :   Divers  Orages  Givrage  Turbulence  Onde Orograph.  Cendres Volcan.






- Altitude de l'aérodrome : 80 ft
- Code IATA : LPL


EGGP - Liverpool John Lennon

DERNIER METAR :
  • 250120Z AUTO VRB03KT 9999 NCD 09/05 Q1033

METARs EXPIRÉS :
  • 250050Z AUTO VRB03KT 9999 NCD 09/05 Q1033
  • 250020Z AUTO 23004KT 9999 NCD 11/06 Q1033
  • 242350Z AUTO 22006KT 9999 NCD 11/06 Q1033
  • 242320Z AUTO 21008KT 9999 NCD 11/07 Q1033
  • 242250Z AUTO 21008KT 9999 NCD 11/07 Q1033

TAF TAF EGGP
Valide du 25 à 00h jusqu'au 26 à 00h UTC


242250Z 2500/2524 20004KT 9999 FEW040
PROB30 2503/2507 8000
BECMG 2509/2512 29010KT
ATIS : +44 151 907 2000 (option 5 or ext 5150)
Météo : +44 871 750 5150



MET'MAP, la Météo Aéronautique d'un coup d'oeil ! - Copyright ORBIFLY Décembre 2007 - Disclaimer

ORBIFLY MET'MAP TEAM :

Programmation & Développement : Alexandra Zaïnal
Sur une idée originale de : Baudouin d'Aumeries
Assistance à la programmation : Marc-Olivier Méhu
Soutien technique & logistique : Manuel Goepfert

Contact : metmap@orbifly.com




SOURCES & CREDITS :

   NOAA